Time;durP1;ratioP1;P1;durP2;ratioP2;P2;SDS_P1;SDS_P2;PMS_P1;PMS_P2;Temp;Humidity;BMP_temperature;BMP_pressure;BME280_temperature;BME280_humidity;BME280_pressure;Samples;Min_cycle;Max_cycle;Signal;HPM_P1;HPM_P2
2022/11/28 00:01:29;;;;;;;0.60;0.60;;;;;;;;;;1851469;76;26299;-60
2022/11/28 00:03:56;;;;;;;0.80;0.80;;;;;;;;;;1844594;76;26272;-60
2022/11/28 00:06:25;;;;;;;0.80;0.80;;;;;;;;;;1849020;76;26800;-61
2022/11/28 00:08:53;;;;;;;0.75;0.75;;;;;;;;;;1849201;76;27452;-60
2022/11/28 00:11:21;;;;;;;0.80;0.80;;;;;;;;;;1850693;76;26272;-60
2022/11/28 00:13:48;;;;;;;0.70;0.70;;;;;;;;;;1850430;76;26339;-61
2022/11/28 00:16:17;;;;;;;0.78;0.78;;;;;;;;;;1842687;75;26784;-60
2022/11/28 00:18:44;;;;;;;1.57;0.80;;;;;;;;;;1849439;76;26315;-60
2022/11/28 00:21:12;;;;;;;0.70;0.70;;;;;;;;;;1846690;76;26360;-60
2022/11/28 00:23:40;;;;;;;0.60;0.60;;;;;;;;;;1845816;76;26284;-60
2022/11/28 00:26:09;;;;;;;2.05;0.80;;;;;;;;;;1846867;76;26417;-60
2022/11/28 00:28:36;;;;;;;0.82;0.82;;;;;;;;;;1851349;76;26304;-59
2022/11/28 00:31:04;;;;;;;1.00;0.65;;;;;;;;;;1841315;76;26804;-60
2022/11/28 00:33:34;;;;;;;0.80;0.80;;;;;;;;;;1861538;76;26276;-58
2022/11/28 00:36:03;;;;;;;0.60;0.60;;;;;;;;;;1845269;76;26263;-60
2022/11/28 00:38:30;;;;;;;0.62;0.62;;;;;;;;;;1848270;76;25976;-59
2022/11/28 00:40:59;;;;;;;0.57;0.57;;;;;;;;;;1847446;75;26269;-61
2022/11/28 00:43:27;;;;;;;0.60;0.60;;;;;;;;;;1846152;76;27291;-60
2022/11/28 00:45:54;;;;;;;0.70;0.70;;;;;;;;;;1846507;76;26287;-61
2022/11/28 00:48:22;;;;;;;0.88;0.88;;;;;;;;;;1847852;76;26873;-60
2022/11/28 00:50:49;;;;;;;0.60;0.60;;;;;;;;;;1850465;76;26365;-60
2022/11/28 00:53:17;;;;;;;0.70;0.70;;;;;;;;;;1857440;75;26319;-60
2022/11/28 00:55:44;;;;;;;0.50;0.50;;;;;;;;;;1863219;75;26267;-60
2022/11/28 00:58:11;;;;;;;0.55;0.55;;;;;;;;;;1865172;75;26318;-60
2022/11/28 01:00:39;;;;;;;0.50;0.50;;;;;;;;;;1860236;75;26782;-60
2022/11/28 01:03:06;;;;;;;0.70;0.70;;;;;;;;;;1864887;75;26327;-61
2022/11/28 01:05:35;;;;;;;0.70;0.70;;;;;;;;;;1866330;75;26248;-59
2022/11/28 01:08:02;;;;;;;0.60;0.60;;;;;;;;;;1866671;75;26310;-62
2022/11/28 01:10:29;;;;;;;0.50;0.50;;;;;;;;;;1861710;75;26757;-61
2022/11/28 01:12:57;;;;;;;0.60;0.60;;;;;;;;;;1863135;75;26317;-61
2022/11/28 01:15:24;;;;;;;0.50;0.50;;;;;;;;;;1867736;75;26296;-61
2022/11/28 01:17:51;;;;;;;0.70;0.70;;;;;;;;;;1864954;75;26293;-61
2022/11/28 01:20:19;;;;;;;0.62;0.62;;;;;;;;;;1863953;75;26303;-60
2022/11/28 01:22:46;;;;;;;0.65;0.65;;;;;;;;;;1859868;75;26288;-62
2022/11/28 01:25:13;;;;;;;0.60;0.60;;;;;;;;;;1861167;75;26256;-60
2022/11/28 01:27:40;;;;;;;0.60;0.60;;;;;;;;;;1866621;75;26322;-58
2022/11/28 01:30:08;;;;;;;0.50;0.50;;;;;;;;;;1860070;75;26244;-61
2022/11/28 01:32:35;;;;;;;0.55;0.55;;;;;;;;;;1868456;75;27333;-59
2022/11/28 01:35:02;;;;;;;0.60;0.60;;;;;;;;;;1866357;75;27460;-60
2022/11/28 01:37:30;;;;;;;0.60;0.60;;;;;;;;;;1863326;75;26243;-60
2022/11/28 01:39:57;;;;;;;0.53;0.53;;;;;;;;;;1868029;75;25595;-60
2022/11/28 01:42:24;;;;;;;0.47;0.47;;;;;;;;;;1864032;75;26388;-61
2022/11/28 01:44:53;;;;;;;0.50;0.50;;;;;;;;;;1866396;75;26814;-62
2022/11/28 01:47:22;;;;;;;0.50;0.50;;;;;;;;;;1857589;75;26770;-61
2022/11/28 01:49:51;;;;;;;0.50;0.50;;;;;;;;;;1867145;75;26360;-58
2022/11/28 01:52:19;;;;;;;0.70;0.70;;;;;;;;;;1865908;75;26755;-58
2022/11/28 01:54:48;;;;;;;0.50;0.50;;;;;;;;;;1850678;75;26373;-61
2022/11/28 01:57:16;;;;;;;0.50;0.50;;;;;;;;;;1850293;76;26802;-61
2022/11/28 01:59:48;;;;;;;0.50;0.50;;;;;;;;;;1852848;76;25746;-62
2022/11/28 02:02:17;;;;;;;0.50;0.50;;;;;;;;;;1847059;75;26311;-60
2022/11/28 02:04:50;;;;;;;0.45;0.45;;;;;;;;;;1850118;76;26279;-60
2022/11/28 02:07:17;;;;;;;0.40;0.40;;;;;;;;;;1824998;72;26357;-61
2022/11/28 02:09:44;;;;;;;0.40;0.40;;;;;;;;;;1822183;78;26279;-61
2022/11/28 02:12:13;;;;;;;0.40;0.40;;;;;;;;;;1821861;78;26379;-60
2022/11/28 02:14:51;;;;;;;0.50;0.50;;;;;;;;;;1821275;77;26276;-61
2022/11/28 02:17:20;;;;;;;0.50;0.50;;;;;;;;;;1821422;77;26296;-60
2022/11/28 02:19:58;;;;;;;0.60;0.60;;;;;;;;;;1821287;77;26955;-62
2022/11/28 02:22:26;;;;;;;0.40;0.40;;;;;;;;;;1819463;77;26260;-60
2022/11/28 02:25:05;;;;;;;0.40;0.40;;;;;;;;;;1821045;77;26290;-60
2022/11/28 02:27:49;;;;;;;0.50;0.50;;;;;;;;;;1810796;77;26335;-58
2022/11/28 02:30:25;;;;;;;0.47;0.47;;;;;;;;;;1821056;77;26366;-61
2022/11/28 02:32:56;;;;;;;0.50;0.50;;;;;;;;;;1829876;74;26632;-60
2022/11/28 02:35:25;;;;;;;0.50;0.50;;;;;;;;;;1802763;78;26337;-63
2022/11/28 02:37:57;;;;;;;0.40;0.40;;;;;;;;;;1817758;77;26290;-61
2022/11/28 02:40:38;;;;;;;0.50;0.50;;;;;;;;;;1823330;77;27427;-62
2022/11/28 02:43:16;;;;;;;0.40;0.40;;;;;;;;;;1814573;77;26275;-62
2022/11/28 02:45:45;;;;;;;0.45;0.45;;;;;;;;;;1811092;77;26609;-61
2022/11/28 02:48:19;;;;;;;0.47;0.47;;;;;;;;;;1815226;77;26304;-62
2022/11/28 02:50:52;;;;;;;0.50;0.50;;;;;;;;;;1820726;74;26429;-61
2022/11/28 02:53:22;;;;;;;0.37;0.37;;;;;;;;;;1818394;77;26346;-60
2022/11/28 02:55:50;;;;;;;0.40;0.40;;;;;;;;;;1782191;79;26381;-61
2022/11/28 02:58:18;;;;;;;0.53;0.53;;;;;;;;;;1805597;77;26797;-62
2022/11/28 03:00:46;;;;;;;0.42;0.42;;;;;;;;;;1805944;77;27345;-61
2022/11/28 03:03:17;;;;;;;0.47;0.47;;;;;;;;;;1802761;77;26400;-61
2022/11/28 03:06:01;;;;;;;0.40;0.40;;;;;;;;;;1806179;78;26373;-60
2022/11/28 03:08:33;;;;;;;0.30;0.30;;;;;;;;;;1808426;77;26278;-62
2022/11/28 03:11:07;;;;;;;0.40;0.40;;;;;;;;;;1806423;78;26286;-63
2022/11/28 03:13:36;;;;;;;0.47;0.47;;;;;;;;;;1805353;78;26330;-63
2022/11/28 03:16:14;;;;;;;0.40;0.40;;;;;;;;;;1802427;77;26346;-62
2022/11/28 03:18:43;;;;;;;0.30;0.30;;;;;;;;;;1804185;77;26332;-60
2022/11/28 03:21:15;;;;;;;0.30;0.30;;;;;;;;;;1807614;77;26329;-62
2022/11/28 03:26:37;;;;;;;0.40;0.40;;;;;;;;;;1788658;80;26303;-60
2022/11/28 03:29:21;;;;;;;0.50;0.50;;;;;;;;;;1787090;80;26275;-61
2022/11/28 03:31:53;;;;;;;0.30;0.30;;;;;;;;;;1722294;82;26247;-61
2022/11/28 03:34:22;;;;;;;0.40;0.40;;;;;;;;;;1770106;79;26261;-61
2022/11/28 03:36:53;;;;;;;0.40;0.40;;;;;;;;;;1761788;80;26336;-61
2022/11/28 03:39:22;;;;;;;0.40;0.40;;;;;;;;;;1793273;79;26305;-62
2022/11/28 03:41:51;;;;;;;0.50;0.50;;;;;;;;;;1796741;78;26239;-62
2022/11/28 03:44:20;;;;;;;0.30;0.30;;;;;;;;;;1797438;78;26263;-58
2022/11/28 03:46:48;;;;;;;0.45;0.45;;;;;;;;;;1797403;78;26239;-61
2022/11/28 03:49:17;;;;;;;0.40;0.40;;;;;;;;;;1797508;78;26255;-59
2022/11/28 03:51:46;;;;;;;0.35;0.35;;;;;;;;;;1797831;78;26241;-60
2022/11/28 03:54:14;;;;;;;0.40;0.40;;;;;;;;;;1795715;79;26281;-61
2022/11/28 03:56:46;;;;;;;0.37;0.37;;;;;;;;;;1797249;78;26248;-61
2022/11/28 03:59:15;;;;;;;0.30;0.30;;;;;;;;;;1794679;79;26300;-61
2022/11/28 04:01:52;;;;;;;0.30;0.30;;;;;;;;;;1796725;78;26190;-62
2022/11/28 04:04:30;;;;;;;0.30;0.30;;;;;;;;;;1797481;78;26317;-58
2022/11/28 04:07:15;;;;;;;0.30;0.30;;;;;;;;;;1795607;78;26711;-61
2022/11/28 04:09:50;;;;;;;0.40;0.40;;;;;;;;;;1795645;78;26219;-61
2022/11/28 04:12:19;;;;;;;0.28;0.28;;;;;;;;;;1794983;79;26368;-58
2022/11/28 04:14:47;;;;;;;0.35;0.35;;;;;;;;;;1793843;78;26259;-61
2022/11/28 04:17:16;;;;;;;0.40;0.40;;;;;;;;;;1792379;78;26277;-61
2022/11/28 04:19:51;;;;;;;0.40;0.40;;;;;;;;;;1794129;79;26364;-61
2022/11/28 04:22:20;;;;;;;0.35;0.35;;;;;;;;;;1796075;79;26796;-61
2022/11/28 04:24:49;;;;;;;0.40;0.40;;;;;;;;;;1799761;78;26693;-62
2022/11/28 04:27:17;;;;;;;0.40;0.40;;;;;;;;;;1820968;78;26594;-62
2022/11/28 04:29:46;;;;;;;0.30;0.30;;;;;;;;;;1820955;78;26660;-59
2022/11/28 04:32:17;;;;;;;0.40;0.40;;;;;;;;;;1819593;78;26367;-62
2022/11/28 04:34:46;;;;;;;0.40;0.40;;;;;;;;;;1822842;78;26220;-62
2022/11/28 04:37:14;;;;;;;0.40;0.40;;;;;;;;;;1822518;77;26336;-61
2022/11/28 04:39:43;;;;;;;0.30;0.30;;;;;;;;;;1829542;78;26742;-61
2022/11/28 04:42:15;;;;;;;0.40;0.40;;;;;;;;;;1829516;78;25713;-60
2022/11/28 04:44:43;;;;;;;0.40;0.40;;;;;;;;;;1829689;78;26275;-60
2022/11/28 04:47:11;;;;;;;0.40;0.40;;;;;;;;;;1827604;78;26369;-60
2022/11/28 04:49:39;;;;;;;0.40;0.40;;;;;;;;;;1815782;79;26739;-61
2022/11/28 04:52:13;;;;;;;0.40;0.40;;;;;;;;;;1815884;79;26333;-61
2022/11/28 04:54:43;;;;;;;0.42;0.42;;;;;;;;;;1828766;78;26298;-60
2022/11/28 04:57:12;;;;;;;0.47;0.47;;;;;;;;;;1831481;78;26640;-60
2022/11/28 04:59:40;;;;;;;0.37;0.37;;;;;;;;;;1828306;78;26217;-61
2022/11/28 05:02:08;;;;;;;0.42;0.42;;;;;;;;;;1815171;77;26314;-61
2022/11/28 05:04:36;;;;;;;0.30;0.30;;;;;;;;;;1827433;78;26279;-60
2022/11/28 05:07:08;;;;;;;0.30;0.30;;;;;;;;;;1829341;78;27475;-60
2022/11/28 05:09:35;;;;;;;0.80;0.50;;;;;;;;;;1815689;79;27320;-60
2022/11/28 05:12:03;;;;;;;0.40;0.40;;;;;;;;;;1828066;78;26230;-61
2022/11/28 05:14:30;;;;;;;0.40;0.40;;;;;;;;;;1828087;78;26223;-61
2022/11/28 05:16:57;;;;;;;1.47;0.42;;;;;;;;;;1830098;78;26208;-61
2022/11/28 05:19:24;;;;;;;1.85;0.50;;;;;;;;;;1830719;77;26203;-60
2022/11/28 05:21:54;;;;;;;2.00;0.42;;;;;;;;;;1830600;76;26181;-59
2022/11/28 05:24:21;;;;;;;0.72;0.47;;;;;;;;;;1830792;78;26747;-61
2022/11/28 05:26:49;;;;;;;0.55;0.55;;;;;;;;;;1812715;79;26233;-60
2022/11/28 05:29:16;;;;;;;0.70;0.70;;;;;;;;;;1777021;79;27143;-61
2022/11/28 05:31:43;;;;;;;0.50;0.50;;;;;;;;;;1847911;76;26289;-61
2022/11/28 05:34:11;;;;;;;0.60;0.60;;;;;;;;;;1845295;77;26271;-60
2022/11/28 05:36:38;;;;;;;0.50;0.50;;;;;;;;;;1846338;77;26180;-59
2022/11/28 05:39:05;;;;;;;0.50;0.50;;;;;;;;;;1811542;79;26293;-61
2022/11/28 05:41:33;;;;;;;0.50;0.50;;;;;;;;;;1822411;78;26780;-61
2022/11/28 05:44:00;;;;;;;1.27;0.50;;;;;;;;;;1822152;77;26331;-61
2022/11/28 05:46:28;;;;;;;0.50;0.50;;;;;;;;;;1822880;77;26275;-62
2022/11/28 05:48:56;;;;;;;0.60;0.60;;;;;;;;;;1820859;77;26341;-60
2022/11/28 05:51:23;;;;;;;0.70;0.70;;;;;;;;;;1821159;77;26233;-60
2022/11/28 05:53:50;;;;;;;0.70;0.70;;;;;;;;;;1819915;78;26236;-60
2022/11/28 05:56:19;;;;;;;0.57;0.57;;;;;;;;;;1821425;77;26251;-60
2022/11/28 05:58:46;;;;;;;0.85;0.62;;;;;;;;;;1823314;77;26290;-60
2022/11/28 06:01:15;;;;;;;0.72;0.72;;;;;;;;;;1798296;79;26195;-60
2022/11/28 06:03:43;;;;;;;1.95;0.70;;;;;;;;;;1849790;76;26268;-59
2022/11/28 06:06:14;;;;;;;1.07;0.60;;;;;;;;;;1846272;76;26275;-59
2022/11/28 06:08:42;;;;;;;1.00;0.60;;;;;;;;;;1846369;76;26370;-60
2022/11/28 06:11:09;;;;;;;2.70;0.80;;;;;;;;;;1846860;76;26183;-61
2022/11/28 06:13:36;;;;;;;0.80;0.80;;;;;;;;;;1848004;76;26318;-60
2022/11/28 06:16:05;;;;;;;2.15;0.65;;;;;;;;;;1847597;76;25664;-60
2022/11/28 06:18:32;;;;;;;0.70;0.70;;;;;;;;;;1846283;76;27101;-60
2022/11/28 06:21:03;;;;;;;0.70;0.70;;;;;;;;;;1847228;76;27637;-60
2022/11/28 06:23:30;;;;;;;0.82;0.80;;;;;;;;;;1846942;76;25998;-61
2022/11/28 06:25:58;;;;;;;0.75;0.75;;;;;;;;;;1849277;76;26295;-61
2022/11/28 06:28:25;;;;;;;0.70;0.70;;;;;;;;;;1851972;76;26783;-59
2022/11/28 06:30:52;;;;;;;2.15;0.80;;;;;;;;;;1852057;76;26746;-61
2022/11/28 06:33:20;;;;;;;1.37;0.82;;;;;;;;;;1852788;76;26336;-61
2022/11/28 06:35:47;;;;;;;0.70;0.70;;;;;;;;;;1815088;77;26274;-61
2022/11/28 06:38:14;;;;;;;2.02;0.98;;;;;;;;;;1829635;78;26536;-60
2022/11/28 06:40:42;;;;;;;1.65;0.90;;;;;;;;;;1832236;77;26234;-60
2022/11/28 06:43:09;;;;;;;0.95;0.90;;;;;;;;;;1830028;77;26209;-60
2022/11/28 06:45:36;;;;;;;0.70;0.70;;;;;;;;;;1829288;77;26390;-59
2022/11/28 06:48:03;;;;;;;1.00;1.00;;;;;;;;;;1829235;77;26290;-60
2022/11/28 06:50:31;;;;;;;0.85;0.85;;;;;;;;;;1831776;77;26314;-60
2022/11/28 06:53:00;;;;;;;1.47;1.00;;;;;;;;;;1829074;78;26209;-61
2022/11/28 06:55:29;;;;;;;0.95;0.80;;;;;;;;;;1830447;78;26289;-59
2022/11/28 06:57:56;;;;;;;1.75;0.90;;;;;;;;;;1832409;77;26340;-60
2022/11/28 07:00:23;;;;;;;3.27;1.10;;;;;;;;;;1831810;76;26218;-59
2022/11/28 07:02:50;;;;;;;1.20;1.10;;;;;;;;;;1831938;76;26751;-60
2022/11/28 07:05:19;;;;;;;1.22;1.10;;;;;;;;;;1829433;77;26590;-59
2022/11/28 07:07:47;;;;;;;2.15;1.00;;;;;;;;;;1830542;77;26232;-60
2022/11/28 07:10:14;;;;;;;1.00;1.00;;;;;;;;;;1831151;78;26247;-61
2022/11/28 07:12:42;;;;;;;2.05;1.10;;;;;;;;;;1828750;78;26136;-60
2022/11/28 07:15:10;;;;;;;1.17;1.10;;;;;;;;;;1829895;78;26523;-60
2022/11/28 07:17:37;;;;;;;1.10;1.10;;;;;;;;;;1815955;77;26229;-60
2022/11/28 07:20:05;;;;;;;1.32;1.00;;;;;;;;;;1785191;79;26820;-60
2022/11/28 07:22:32;;;;;;;1.17;1.17;;;;;;;;;;1811629;77;28220;-65
2022/11/28 07:25:00;;;;;;;1.05;1.00;;;;;;;;;;1825207;77;26248;-66
2022/11/28 07:27:27;;;;;;;1.42;1.05;;;;;;;;;;1823533;77;26362;-63
2022/11/28 07:29:54;;;;;;;0.90;0.90;;;;;;;;;;1821089;78;26304;-64
2022/11/28 07:32:21;;;;;;;1.37;0.90;;;;;;;;;;1822263;77;24165;-59
2022/11/28 07:34:49;;;;;;;0.88;0.88;;;;;;;;;;1821276;77;26252;-59
2022/11/28 07:37:16;;;;;;;3.62;0.88;;;;;;;;;;1819190;77;26220;-59
2022/11/28 07:39:43;;;;;;;1.00;1.00;;;;;;;;;;1825700;77;26357;-60
2022/11/28 07:42:11;;;;;;;1.95;1.10;;;;;;;;;;1821912;77;26260;-60
2022/11/28 07:44:38;;;;;;;1.00;1.00;;;;;;;;;;1821074;78;26760;-60
2022/11/28 07:47:05;;;;;;;1.07;1.07;;;;;;;;;;1821984;77;26248;-59
2022/11/28 07:49:33;;;;;;;1.07;1.00;;;;;;;;;;1819106;77;26346;-59
2022/11/28 07:52:00;;;;;;;0.85;0.85;;;;;;;;;;1823365;78;26069;-58
2022/11/28 07:54:27;;;;;;;0.90;0.90;;;;;;;;;;1821804;77;26669;-53
2022/11/28 07:56:54;;;;;;;1.05;1.00;;;;;;;;;;1810944;79;22350;-61
2022/11/28 07:59:22;;;;;;;0.75;0.75;;;;;;;;;;1818277;77;26203;-60
2022/11/28 08:01:49;;;;;;;2.83;1.20;;;;;;;;;;1818921;77;26313;-59
2022/11/28 08:04:16;;;;;;;1.47;0.78;;;;;;;;;;1845542;77;26228;-58
2022/11/28 08:06:44;;;;;;;0.80;0.80;;;;;;;;;;1845576;77;26251;-60
2022/11/28 08:09:11;;;;;;;0.90;0.80;;;;;;;;;;1847401;77;26341;-58
2022/11/28 08:11:39;;;;;;;0.70;0.70;;;;;;;;;;1848171;76;26997;-59
2022/11/28 08:14:06;;;;;;;0.72;0.72;;;;;;;;;;1846781;77;26345;-62
2022/11/28 08:16:33;;;;;;;0.65;0.62;;;;;;;;;;1847677;77;26365;-61
2022/11/28 08:19:01;;;;;;;0.82;0.82;;;;;;;;;;1846121;76;26737;-59
2022/11/28 08:21:30;;;;;;;0.93;0.90;;;;;;;;;;1846228;76;26263;-59
2022/11/28 08:23:58;;;;;;;0.80;0.80;;;;;;;;;;1840194;76;38594;-60
2022/11/28 08:26:26;;;;;;;1.47;0.80;;;;;;;;;;1845932;76;26185;-58
2022/11/28 08:28:54;;;;;;;0.80;0.80;;;;;;;;;;1847906;76;26653;-60
2022/11/28 08:31:23;;;;;;;0.60;0.60;;;;;;;;;;1846734;76;26180;-65
2022/11/28 08:33:51;;;;;;;1.37;0.70;;;;;;;;;;1846975;76;26325;-56
2022/11/28 08:36:19;;;;;;;0.80;0.80;;;;;;;;;;1845468;76;26711;-64
2022/11/28 08:38:47;;;;;;;0.70;0.70;;;;;;;;;;1846435;76;26342;-60
2022/11/28 08:41:15;;;;;;;0.70;0.60;;;;;;;;;;1847252;76;26250;-59
2022/11/28 08:43:42;;;;;;;0.70;0.70;;;;;;;;;;1846780;76;26293;-58
2022/11/28 08:46:11;;;;;;;0.68;0.68;;;;;;;;;;1848395;76;26199;-59
2022/11/28 08:48:40;;;;;;;0.80;0.80;;;;;;;;;;1846738;76;26208;-58
2022/11/28 08:51:09;;;;;;;0.70;0.70;;;;;;;;;;1848856;77;26262;-59
2022/11/28 08:53:36;;;;;;;1.62;0.60;;;;;;;;;;1845891;76;26239;-60
2022/11/28 08:56:04;;;;;;;0.65;0.65;;;;;;;;;;1845453;76;26247;-59
2022/11/28 08:58:31;;;;;;;1.45;0.57;;;;;;;;;;1844905;77;26661;-58
2022/11/28 09:00:58;;;;;;;0.60;0.60;;;;;;;;;;1846918;76;26764;-61
2022/11/28 09:03:26;;;;;;;0.70;0.70;;;;;;;;;;1849087;76;26212;-57
2022/11/28 09:05:53;;;;;;;0.80;0.80;;;;;;;;;;1847245;77;26231;-59
2022/11/28 09:08:21;;;;;;;0.60;0.60;;;;;;;;;;1846610;77;26296;-59
2022/11/28 09:10:48;;;;;;;0.80;0.80;;;;;;;;;;1846613;76;26278;-60
2022/11/28 09:13:15;;;;;;;0.60;0.60;;;;;;;;;;1845843;76;26208;-59
2022/11/28 09:15:43;;;;;;;0.70;0.70;;;;;;;;;;1845360;76;26697;-58
2022/11/28 09:18:12;;;;;;;0.68;0.68;;;;;;;;;;1846087;76;26313;-57
2022/11/28 09:20:40;;;;;;;0.70;0.70;;;;;;;;;;1846757;76;26156;-59
2022/11/28 09:23:08;;;;;;;0.70;0.70;;;;;;;;;;1846501;77;25978;-60
2022/11/28 09:25:39;;;;;;;0.60;0.60;;;;;;;;;;1844633;77;26188;-58
2022/11/28 09:28:06;;;;;;;0.70;0.70;;;;;;;;;;1831501;76;26364;-62
2022/11/28 09:30:34;;;;;;;0.78;0.78;;;;;;;;;;1775002;79;27843;-55
2022/11/28 09:33:01;;;;;;;0.80;0.80;;;;;;;;;;1780570;79;26381;-55
2022/11/28 09:35:28;;;;;;;0.70;0.70;;;;;;;;;;1784784;80;26311;-56
2022/11/28 09:37:57;;;;;;;0.80;0.80;;;;;;;;;;1781491;79;27097;-62
2022/11/28 09:40:31;;;;;;;1.00;0.90;;;;;;;;;;1786025;79;26760;-61
2022/11/28 09:43:00;;;;;;;0.60;0.60;;;;;;;;;;1787638;79;26443;-61
2022/11/28 09:45:28;;;;;;;0.50;0.50;;;;;;;;;;1789849;79;26719;-61
2022/11/28 09:47:56;;;;;;;0.75;0.75;;;;;;;;;;1788665;79;26207;-60
2022/11/28 09:50:28;;;;;;;1.50;0.80;;;;;;;;;;1769393;80;27910;-64
2022/11/28 09:52:57;;;;;;;0.90;0.90;;;;;;;;;;1781097;80;26684;-63
2022/11/28 09:55:26;;;;;;;0.70;0.70;;;;;;;;;;1745976;82;26306;-62
2022/11/28 09:57:53;;;;;;;0.70;0.70;;;;;;;;;;1785281;79;26228;-61
2022/11/28 10:00:25;;;;;;;0.70;0.70;;;;;;;;;;1781102;79;27426;-62
2022/11/28 10:02:54;;;;;;;0.78;0.78;;;;;;;;;;1781060;79;26311;-61
2022/11/28 10:05:26;;;;;;;0.90;0.90;;;;;;;;;;1745675;81;26756;-58
2022/11/28 10:07:57;;;;;;;1.25;0.98;;;;;;;;;;1751052;79;27360;-59
2022/11/28 10:10:41;;;;;;;0.90;0.90;;;;;;;;;;1729632;82;26270;-59
2022/11/28 10:13:19;;;;;;;0.80;0.80;;;;;;;;;;1748042;81;26789;-60
2022/11/28 10:15:59;;;;;;;0.90;0.90;;;;;;;;;;1786191;78;26661;-60
2022/11/28 10:18:28;;;;;;;0.80;0.80;;;;;;;;;;1783783;79;26759;-60
2022/11/28 10:20:57;;;;;;;0.75;0.75;;;;;;;;;;1782487;79;26748;-58
2022/11/28 10:23:26;;;;;;;2.95;0.80;;;;;;;;;;1782595;80;27281;-58
2022/11/28 10:25:57;;;;;;;0.80;0.80;;;;;;;;;;1784081;80;26236;-58
2022/11/28 10:28:29;;;;;;;1.00;0.90;;;;;;;;;;1785185;77;26346;-58
2022/11/28 10:31:00;;;;;;;0.80;0.80;;;;;;;;;;1782466;79;26275;-57
2022/11/28 10:33:35;;;;;;;0.90;0.90;;;;;;;;;;1784183;79;26228;-59
2022/11/28 10:36:07;;;;;;;0.80;0.80;;;;;;;;;;1772965;80;26235;-57
2022/11/28 10:38:33;;;;;;;0.80;0.80;;;;;;;;;;1784373;80;26218;-58
2022/11/28 10:41:08;;;;;;;0.80;0.80;;;;;;;;;;1784164;79;26726;-56
2022/11/28 10:43:46;;;;;;;0.80;0.80;;;;;;;;;;1784747;79;26310;-58
2022/11/28 10:46:28;;;;;;;2.08;1.00;;;;;;;;;;1782820;79;26224;-57
2022/11/28 10:49:03;;;;;;;2.87;0.82;;;;;;;;;;1782843;80;26711;-57
2022/11/28 10:51:32;;;;;;;0.90;0.90;;;;;;;;;;1783140;80;26204;-58
2022/11/28 10:54:17;;;;;;;2.70;1.00;;;;;;;;;;1782983;79;26264;-58
2022/11/28 10:56:48;;;;;;;0.80;0.80;;;;;;;;;;1782217;79;26298;-56
2022/11/28 10:59:17;;;;;;;0.88;0.88;;;;;;;;;;1782671;80;26739;-57
2022/11/28 11:01:44;;;;;;;1.45;0.90;;;;;;;;;;1781055;79;26672;-57
2022/11/28 11:04:19;;;;;;;1.55;0.90;;;;;;;;;;1782546;80;26293;-57
2022/11/28 11:06:48;;;;;;;0.82;0.82;;;;;;;;;;1784900;80;26326;-58
2022/11/28 11:09:15;;;;;;;1.27;1.05;;;;;;;;;;1781405;80;26232;-58
2022/11/28 11:11:44;;;;;;;0.90;0.90;;;;;;;;;;1783726;79;26208;-58
2022/11/28 11:14:11;;;;;;;0.78;0.78;;;;;;;;;;1785467;79;26279;-57
2022/11/28 11:16:52;;;;;;;0.80;0.80;;;;;;;;;;1781338;79;26398;-58
2022/11/28 11:19:23;;;;;;;0.93;0.90;;;;;;;;;;1779495;79;26361;-57
2022/11/28 11:22:09;;;;;;;1.00;1.00;;;;;;;;;;1781765;80;26267;-58
2022/11/28 11:24:36;;;;;;;0.90;0.90;;;;;;;;;;1780796;80;26298;-58
2022/11/28 11:27:05;;;;;;;0.88;0.88;;;;;;;;;;1781190;80;26305;-58
2022/11/28 11:29:36;;;;;;;0.90;0.90;;;;;;;;;;1811602;77;26325;-58
2022/11/28 11:32:05;;;;;;;0.70;0.70;;;;;;;;;;1835415;78;26252;-56
2022/11/28 11:34:33;;;;;;;1.45;0.90;;;;;;;;;;1834323;78;26336;-58
2022/11/28 11:37:19;;;;;;;0.80;0.80;;;;;;;;;;1832349;78;25598;-57
2022/11/28 11:39:50;;;;;;;0.80;0.80;;;;;;;;;;1833793;78;26712;-58
2022/11/28 11:42:21;;;;;;;1.00;1.00;;;;;;;;;;1832053;76;26817;-57
2022/11/28 11:44:49;;;;;;;0.93;0.90;;;;;;;;;;1833464;78;26212;-57
2022/11/28 11:47:17;;;;;;;0.75;0.75;;;;;;;;;;1832960;78;26753;-58
2022/11/28 11:49:48;;;;;;;0.95;0.95;;;;;;;;;;1835043;78;26204;-57
2022/11/28 11:52:23;;;;;;;0.90;0.90;;;;;;;;;;1830745;78;26278;-58
2022/11/28 11:54:55;;;;;;;1.10;0.80;;;;;;;;;;1831839;76;26725;-58
2022/11/28 11:57:24;;;;;;;0.80;0.80;;;;;;;;;;1831234;78;26337;-58
2022/11/28 12:00:02;;;;;;;0.80;0.80;;;;;;;;;;1833096;76;26296;-58
2022/11/28 12:02:39;;;;;;;0.70;0.70;;;;;;;;;;1822717;78;26264;-57
2022/11/28 12:05:17;;;;;;;0.80;0.80;;;;;;;;;;1831070;78;26342;-57
2022/11/28 12:07:52;;;;;;;0.80;0.80;;;;;;;;;;1831930;78;26674;-58
2022/11/28 12:10:20;;;;;;;0.88;0.88;;;;;;;;;;1830922;76;26284;-58
2022/11/28 12:12:48;;;;;;;0.75;0.75;;;;;;;;;;1832499;76;26275;-57
2022/11/28 12:15:17;;;;;;;0.80;0.80;;;;;;;;;;1820294;78;26273;-58
2022/11/28 12:17:51;;;;;;;0.70;0.70;;;;;;;;;;1832323;76;26290;-58
2022/11/28 12:20:26;;;;;;;0.93;0.93;;;;;;;;;;1832314;78;26280;-58
2022/11/28 12:22:55;;;;;;;0.70;0.70;;;;;;;;;;1834287;78;26322;-58
2022/11/28 12:25:24;;;;;;;0.80;0.80;;;;;;;;;;1836149;78;26329;-57
2022/11/28 12:27:56;;;;;;;0.70;0.70;;;;;;;;;;1829272;78;26714;-58
2022/11/28 12:30:27;;;;;;;0.80;0.80;;;;;;;;;;1829126;77;26377;-58
2022/11/28 12:33:02;;;;;;;0.85;0.85;;;;;;;;;;1829517;77;26223;-58
2022/11/28 12:35:43;;;;;;;0.90;0.90;;;;;;;;;;1827482;77;26550;-58
2022/11/28 12:38:15;;;;;;;0.90;0.90;;;;;;;;;;1827436;78;26257;-58
2022/11/28 12:40:53;;;;;;;1.00;1.00;;;;;;;;;;1807727;78;26755;-57
2022/11/28 12:43:24;;;;;;;0.88;0.88;;;;;;;;;;1827997;77;26302;-58
2022/11/28 12:45:56;;;;;;;0.82;0.82;;;;;;;;;;1830029;77;27032;-57
2022/11/28 12:48:41;;;;;;;0.98;0.98;;;;;;;;;;1828390;77;27019;-57
2022/11/28 12:51:26;;;;;;;0.90;0.90;;;;;;;;;;1829324;78;26279;-58
2022/11/28 12:54:13;;;;;;;0.80;0.80;;;;;;;;;;1830580;77;27007;-57
2022/11/28 12:56:47;;;;;;;0.88;0.88;;;;;;;;;;1829065;77;26189;-58
2022/11/28 12:59:21;;;;;;;1.17;0.82;;;;;;;;;;1829919;77;26866;-57
2022/11/28 13:02:01;;;;;;;0.80;0.80;;;;;;;;;;1817782;77;26368;-57
2022/11/28 13:04:42;;;;;;;0.90;0.90;;;;;;;;;;1820096;78;26266;-57
2022/11/28 13:07:14;;;;;;;0.90;0.90;;;;;;;;;;1821221;77;26252;-57
2022/11/28 13:09:43;;;;;;;1.10;1.10;;;;;;;;;;1822932;77;27645;-57
2022/11/28 13:12:20;;;;;;;1.10;1.10;;;;;;;;;;1808776;78;26825;-56
2022/11/28 13:14:49;;;;;;;1.30;0.90;;;;;;;;;;1825464;77;26236;-58
2022/11/28 13:17:27;;;;;;;0.90;0.90;;;;;;;;;;1820539;77;24109;-58
2022/11/28 13:19:56;;;;;;;1.20;1.10;;;;;;;;;;1818137;77;28153;-58
2022/11/28 13:22:24;;;;;;;1.10;1.00;;;;;;;;;;1827372;78;27183;-59
2022/11/28 13:25:05;;;;;;;1.00;1.00;;;;;;;;;;1816129;78;28751;-58
2022/11/28 13:27:35;;;;;;;0.90;0.90;;;;;;;;;;1821114;78;26223;-59
2022/11/28 13:30:05;;;;;;;8.73;1.70;;;;;;;;;;1806571;77;28242;-59
2022/11/28 13:32:46;;;;;;;2.30;0.93;;;;;;;;;;1820587;77;26980;-58
2022/11/28 13:35:14;;;;;;;1.17;1.10;;;;;;;;;;1821761;77;26227;-58
2022/11/28 13:37:49;;;;;;;1.10;1.00;;;;;;;;;;1820858;78;26971;-59
2022/11/28 13:40:36;;;;;;;1.02;1.02;;;;;;;;;;1822739;77;26230;-58
2022/11/28 13:43:07;;;;;;;1.00;1.00;;;;;;;;;;1821128;77;26279;-58
2022/11/28 13:45:39;;;;;;;1.00;1.00;;;;;;;;;;1802751;77;26260;-58
2022/11/28 13:48:24;;;;;;;0.82;0.80;;;;;;;;;;1820049;78;26338;-58
2022/11/28 13:50:59;;;;;;;1.00;1.00;;;;;;;;;;1819978;77;26217;-58
2022/11/28 13:53:26;;;;;;;1.07;1.07;;;;;;;;;;1820486;77;27519;-58
2022/11/28 13:56:04;;;;;;;0.90;0.90;;;;;;;;;;1819598;77;26278;-57
2022/11/28 13:58:36;;;;;;;0.90;0.90;;;;;;;;;;1819612;77;26217;-58
2022/11/28 14:01:13;;;;;;;0.93;0.93;;;;;;;;;;1818872;77;27136;-59
2022/11/28 14:03:51;;;;;;;0.90;0.90;;;;;;;;;;1821189;77;26189;-58
2022/11/28 14:06:20;;;;;;;0.90;0.90;;;;;;;;;;1828453;77;26299;-59
2022/11/28 14:08:48;;;;;;;1.00;1.00;;;;;;;;;;1814949;78;26293;-60
2022/11/28 14:11:23;;;;;;;1.00;1.00;;;;;;;;;;1821672;78;26260;-61
2022/11/28 14:13:58;;;;;;;0.90;0.90;;;;;;;;;;1822755;78;26289;-63
2022/11/28 14:16:26;;;;;;;0.93;0.93;;;;;;;;;;1830812;78;26220;-60
2022/11/28 14:19:10;;;;;;;0.90;0.90;;;;;;;;;;1826923;78;26223;-58
2022/11/28 14:21:42;;;;;;;0.82;0.82;;;;;;;;;;1828547;77;26229;-62
2022/11/28 14:24:27;;;;;;;0.88;0.88;;;;;;;;;;1828730;78;26759;-59
2022/11/28 14:26:59;;;;;;;0.80;0.80;;;;;;;;;;1829806;77;26708;-63
2022/11/28 14:29:36;;;;;;;0.88;0.88;;;;;;;;;;1831195;77;26184;-66
2022/11/28 14:32:04;;;;;;;1.15;1.15;;;;;;;;;;1827619;77;26239;-66
2022/11/28 14:34:35;;;;;;;0.88;0.88;;;;;;;;;;1820139;77;26233;-60
2022/11/28 14:37:04;;;;;;;0.98;0.98;;;;;;;;;;1808558;78;26353;-58
2022/11/28 14:39:32;;;;;;;0.80;0.80;;;;;;;;;;1774569;80;26368;-59
2022/11/28 14:42:04;;;;;;;1.10;1.10;;;;;;;;;;1822720;77;26655;-59
2022/11/28 14:44:45;;;;;;;1.00;1.00;;;;;;;;;;1828743;78;26643;-59
2022/11/28 14:47:25;;;;;;;0.80;0.80;;;;;;;;;;1828927;78;26228;-60
2022/11/28 14:50:05;;;;;;;0.90;0.90;;;;;;;;;;1827845;78;26227;-59
2022/11/28 14:52:34;;;;;;;0.82;0.82;;;;;;;;;;1829531;78;26176;-59
2022/11/28 14:55:03;;;;;;;1.05;1.05;;;;;;;;;;1828080;77;26345;-59
2022/11/28 14:57:34;;;;;;;1.10;1.10;;;;;;;;;;1828072;78;26184;-58
2022/11/28 15:00:14;;;;;;;1.00;1.00;;;;;;;;;;1818011;77;26226;-59
2022/11/28 15:03:00;;;;;;;1.20;1.20;;;;;;;;;;1829599;78;26209;-60
2022/11/28 15:05:34;;;;;;;0.88;0.88;;;;;;;;;;1830497;77;26680;-63